Flugplatz Barßel

EDXL · 下萨克森, 德国

使用的METAR站距离机场45 km。
罗盘
风向 的 风向 280° Flugplatz Barßel 12/30
风: 5 kt, 2 beaufort

5 kt

2 kt
改变
0 ft 2.000 4.000 6.000 8.000 10.000
Cloud Cloud
FEW 3.000
Cloud Cloud Cloud Cloud Cloud Cloud
BKN 8.200
Cloud Cloud Cloud Cloud Cloud Cloud Cloud Cloud
OVC 9.700
METAR EDWE 170320Z AUTO 28005KT 9999 // FEW030/// BKN082/// OVC097/// 04/03 Q1008

METAR Flugplatz Barßel - EDXL

Flugplatz Barßel是,德国中的小机场。 该机场位于纬度53,16433和经度7,79461。 该机场有一条跑道: 12/30. 本场的ICAO机场代码为EDXL。 机场在Bremen FIR中。

该航空气象观测是针对Emden Airport在2024年4月17日 05:20, 当地时间进行的。

机场观察

风向为280°,速度为5 kt。

可见度为10 km 或者更多。

有几云在3.000 ft的高度, 碎云在8.200 ft的高度 和 乌云密布在9.700 ft的高度。 破损或更高的上限为8.200 ft。

温度为4 °C,阵风为0 °C。 露点为3 °C,相对湿度为93%。 海平面上的气压为1008 hPa (QNH)。

白天

今天,太阳从06:23升起,在20:32降落。 这适用于Flugplatz Barßel,世界夏令时可能有所不同。 当地时间与世界标准时间之间的时差为+2 小时。 夏令时目前正在进行中。

公司介绍

我们没有关于这个机场的公司信息。

体会

到Vliegles.nl去找飞行课程,跳伞和其他飞行体验。 浏览页面,了解Flugplatz Barßel附近所有可用的活动。 你也可以使用搜索功能来寻找你所在地附近的特定飞行课程、跳伞或其他飞行体验。

跑道

Id 标题 侧风 逆风 侧风 %
12/30 120°-300° 2 kt 5 kt 34 %

逆风成分最大的方向会被突出显示,并用于横风计算。 这并不一定意味着这个方向在使用。

乌云

3.000 ft FEW 几云
8.200 ft BKN 碎云
9.700 ft OVC 乌云密布

温度 & 天气

温度 4 °C
露点 3 °C
相对湿度 93%
风寒 0 °C
Kp-index 1 (0-9)

白天

日出
06:25 (24m)
中午
13:30
日落
20:35

小工具

你想在你的网站上有一个关于Flugplatz Barßel的当前航空天气(METAR)的小部件吗?

显示HTML代码
报告变更